sensor_id;sensor_type;location;lat;lon;timestamp;P1;durP1;ratioP1;P2;durP2;ratioP2
18194;SDS011;9223;50.988;3.162;2023-02-21T00:03:59;16.70;;;9.88;;
18194;SDS011;9223;50.988;3.162;2023-02-21T00:10:20;17.10;;;9.32;;
18194;SDS011;9223;50.988;3.162;2023-02-21T00:16:41;17.15;;;8.32;;
18194;SDS011;9223;50.988;3.162;2023-02-21T00:23:04;15.32;;;8.68;;
18194;SDS011;9223;50.988;3.162;2023-02-21T00:29:25;16.25;;;8.05;;
18194;SDS011;9223;50.988;3.162;2023-02-21T00:35:46;13.95;;;7.72;;
18194;SDS011;9223;50.988;3.162;2023-02-21T00:42:08;16.02;;;7.82;;
18194;SDS011;9223;50.988;3.162;2023-02-21T00:48:29;15.43;;;8.73;;
18194;SDS011;9223;50.988;3.162;2023-02-21T00:54:51;14.88;;;8.05;;
18194;SDS011;9223;50.988;3.162;2023-02-21T01:01:14;13.80;;;8.10;;
18194;SDS011;9223;50.988;3.162;2023-02-21T01:07:35;15.68;;;8.80;;
18194;SDS011;9223;50.988;3.162;2023-02-21T01:13:56;16.50;;;9.05;;
18194;SDS011;9223;50.988;3.162;2023-02-21T01:20:19;17.60;;;9.48;;
18194;SDS011;9223;50.988;3.162;2023-02-21T01:26:40;19.08;;;9.57;;
18194;SDS011;9223;50.988;3.162;2023-02-21T01:33:01;17.75;;;9.88;;
18194;SDS011;9223;50.988;3.162;2023-02-21T01:39:24;20.60;;;10.40;;
18194;SDS011;9223;50.988;3.162;2023-02-21T01:45:46;16.17;;;9.27;;
18194;SDS011;9223;50.988;3.162;2023-02-21T01:52:08;18.50;;;9.20;;
18194;SDS011;9223;50.988;3.162;2023-02-21T01:58:30;18.63;;;10.45;;
18194;SDS011;9223;50.988;3.162;2023-02-21T02:04:52;21.02;;;10.70;;
18194;SDS011;9223;50.988;3.162;2023-02-21T02:11:22;20.88;;;10.20;;
18194;SDS011;9223;50.988;3.162;2023-02-21T02:18:01;20.00;;;9.25;;
18194;SDS011;9223;50.988;3.162;2023-02-21T02:30:44;16.45;;;8.70;;
18194;SDS011;9223;50.988;3.162;2023-02-21T02:36:51;18.25;;;9.00;;
18194;SDS011;9223;50.988;3.162;2023-02-21T02:42:59;17.17;;;9.07;;
18194;SDS011;9223;50.988;3.162;2023-02-21T02:49:06;16.88;;;8.43;;
18194;SDS011;9223;50.988;3.162;2023-02-21T02:55:21;17.13;;;8.65;;
18194;SDS011;9223;50.988;3.162;2023-02-21T03:07:49;18.90;;;9.38;;
18194;SDS011;9223;50.988;3.162;2023-02-21T03:14:01;14.32;;;8.25;;
18194;SDS011;9223;50.988;3.162;2023-02-21T03:20:08;12.15;;;7.05;;
18194;SDS011;9223;50.988;3.162;2023-02-21T03:26:13;12.38;;;6.47;;
18194;SDS011;9223;50.988;3.162;2023-02-21T03:32:19;10.63;;;5.38;;
18194;SDS011;9223;50.988;3.162;2023-02-21T03:38:23;8.30;;;4.95;;
18194;SDS011;9223;50.988;3.162;2023-02-21T03:44:26;8.13;;;4.63;;
18194;SDS011;9223;50.988;3.162;2023-02-21T03:50:31;10.88;;;5.45;;
18194;SDS011;9223;50.988;3.162;2023-02-21T03:56:35;8.45;;;4.13;;
18194;SDS011;9223;50.988;3.162;2023-02-21T04:02:42;7.75;;;3.85;;
18194;SDS011;9223;50.988;3.162;2023-02-21T04:08:47;7.07;;;3.85;;
18194;SDS011;9223;50.988;3.162;2023-02-21T04:14:52;7.20;;;3.90;;
18194;SDS011;9223;50.988;3.162;2023-02-21T04:20:58;8.13;;;4.43;;
18194;SDS011;9223;50.988;3.162;2023-02-21T04:27:03;11.55;;;4.50;;
18194;SDS011;9223;50.988;3.162;2023-02-21T04:33:08;8.35;;;4.35;;
18194;SDS011;9223;50.988;3.162;2023-02-21T04:39:11;8.05;;;4.90;;
18194;SDS011;9223;50.988;3.162;2023-02-21T04:45:16;10.35;;;5.18;;
18194;SDS011;9223;50.988;3.162;2023-02-21T04:51:20;10.20;;;5.82;;
18194;SDS011;9223;50.988;3.162;2023-02-21T04:57:24;9.13;;;5.03;;
18194;SDS011;9223;50.988;3.162;2023-02-21T05:03:28;11.18;;;5.47;;
18194;SDS011;9223;50.988;3.162;2023-02-21T05:09:32;12.38;;;6.13;;
18194;SDS011;9223;50.988;3.162;2023-02-21T05:15:35;12.20;;;6.00;;
18194;SDS011;9223;50.988;3.162;2023-02-21T05:21:40;15.65;;;7.55;;
18194;SDS011;9223;50.988;3.162;2023-02-21T05:27:44;16.40;;;8.90;;
18194;SDS011;9223;50.988;3.162;2023-02-21T05:33:48;14.77;;;7.80;;
18194;SDS011;9223;50.988;3.162;2023-02-21T05:39:53;13.63;;;7.93;;
18194;SDS011;9223;50.988;3.162;2023-02-21T05:45:56;13.98;;;7.00;;
18194;SDS011;9223;50.988;3.162;2023-02-21T05:52:00;17.05;;;8.23;;
18194;SDS011;9223;50.988;3.162;2023-02-21T05:58:06;17.55;;;8.45;;
18194;SDS011;9223;50.988;3.162;2023-02-21T06:04:10;15.98;;;7.53;;
18194;SDS011;9223;50.988;3.162;2023-02-21T06:10:14;17.90;;;9.00;;
18194;SDS011;9223;50.988;3.162;2023-02-21T06:16:19;13.38;;;6.82;;
18194;SDS011;9223;50.988;3.162;2023-02-21T06:22:22;15.38;;;7.18;;
18194;SDS011;9223;50.988;3.162;2023-02-21T06:28:26;13.27;;;7.20;;
18194;SDS011;9223;50.988;3.162;2023-02-21T06:34:32;10.38;;;5.47;;
18194;SDS011;9223;50.988;3.162;2023-02-21T06:40:35;10.90;;;4.82;;
18194;SDS011;9223;50.988;3.162;2023-02-21T06:46:39;9.48;;;4.90;;
18194;SDS011;9223;50.988;3.162;2023-02-21T06:52:44;11.18;;;5.82;;
18194;SDS011;9223;50.988;3.162;2023-02-21T06:58:47;9.40;;;4.25;;
18194;SDS011;9223;50.988;3.162;2023-02-21T07:04:51;10.13;;;5.03;;
18194;SDS011;9223;50.988;3.162;2023-02-21T07:10:56;12.48;;;6.07;;
18194;SDS011;9223;50.988;3.162;2023-02-21T07:16:59;14.27;;;7.35;;
18194;SDS011;9223;50.988;3.162;2023-02-21T07:23:03;17.90;;;8.23;;
18194;SDS011;9223;50.988;3.162;2023-02-21T07:29:08;12.05;;;6.05;;
18194;SDS011;9223;50.988;3.162;2023-02-21T07:35:12;13.88;;;7.07;;
18194;SDS011;9223;50.988;3.162;2023-02-21T07:41:16;11.35;;;5.43;;
18194;SDS011;9223;50.988;3.162;2023-02-21T07:47:21;15.10;;;6.18;;
18194;SDS011;9223;50.988;3.162;2023-02-21T07:53:24;19.20;;;7.97;;
18194;SDS011;9223;50.988;3.162;2023-02-21T07:59:27;17.45;;;7.75;;
18194;SDS011;9223;50.988;3.162;2023-02-21T08:05:32;15.93;;;8.18;;
18194;SDS011;9223;50.988;3.162;2023-02-21T08:11:36;20.52;;;8.07;;
18194;SDS011;9223;50.988;3.162;2023-02-21T08:17:41;15.50;;;7.75;;
18194;SDS011;9223;50.988;3.162;2023-02-21T08:23:45;16.15;;;7.43;;
18194;SDS011;9223;50.988;3.162;2023-02-21T08:29:49;21.20;;;9.93;;
18194;SDS011;9223;50.988;3.162;2023-02-21T08:35:53;15.57;;;7.13;;
18194;SDS011;9223;50.988;3.162;2023-02-21T08:41:58;11.85;;;6.28;;
18194;SDS011;9223;50.988;3.162;2023-02-21T08:48:01;10.48;;;5.32;;
18194;SDS011;9223;50.988;3.162;2023-02-21T08:54:06;10.05;;;5.15;;
18194;SDS011;9223;50.988;3.162;2023-02-21T09:00:12;9.20;;;4.60;;
18194;SDS011;9223;50.988;3.162;2023-02-21T09:06:16;9.55;;;4.07;;
18194;SDS011;9223;50.988;3.162;2023-02-21T09:12:20;11.27;;;4.75;;
18194;SDS011;9223;50.988;3.162;2023-02-21T09:18:25;18.33;;;8.02;;
18194;SDS011;9223;50.988;3.162;2023-02-21T09:24:29;13.07;;;6.68;;
18194;SDS011;9223;50.988;3.162;2023-02-21T09:30:32;15.65;;;8.75;;
18194;SDS011;9223;50.988;3.162;2023-02-21T09:36:37;13.50;;;6.75;;
18194;SDS011;9223;50.988;3.162;2023-02-21T09:42:41;8.07;;;4.28;;
18194;SDS011;9223;50.988;3.162;2023-02-21T09:48:46;10.48;;;5.30;;
18194;SDS011;9223;50.988;3.162;2023-02-21T09:54:53;9.25;;;5.28;;
18194;SDS011;9223;50.988;3.162;2023-02-21T10:00:59;15.90;;;8.27;;
18194;SDS011;9223;50.988;3.162;2023-02-21T10:07:07;13.95;;;7.95;;
18194;SDS011;9223;50.988;3.162;2023-02-21T10:13:19;14.98;;;7.88;;
18194;SDS011;9223;50.988;3.162;2023-02-21T10:19:25;9.38;;;5.70;;
18194;SDS011;9223;50.988;3.162;2023-02-21T10:25:31;11.43;;;6.13;;
18194;SDS011;9223;50.988;3.162;2023-02-21T10:31:38;11.63;;;6.53;;
18194;SDS011;9223;50.988;3.162;2023-02-21T10:37:44;9.98;;;5.95;;
18194;SDS011;9223;50.988;3.162;2023-02-21T10:43:49;11.77;;;7.05;;
18194;SDS011;9223;50.988;3.162;2023-02-21T10:49:58;14.90;;;7.18;;
18194;SDS011;9223;50.988;3.162;2023-02-21T10:56:17;12.50;;;6.95;;
18194;SDS011;9223;50.988;3.162;2023-02-21T11:02:27;11.43;;;6.57;;
18194;SDS011;9223;50.988;3.162;2023-02-21T11:08:34;11.18;;;6.50;;
18194;SDS011;9223;50.988;3.162;2023-02-21T11:14:39;11.38;;;5.97;;
18194;SDS011;9223;50.988;3.162;2023-02-21T11:20:42;12.18;;;6.72;;
18194;SDS011;9223;50.988;3.162;2023-02-21T11:26:49;15.93;;;7.95;;
18194;SDS011;9223;50.988;3.162;2023-02-21T11:32:55;15.77;;;8.27;;
18194;SDS011;9223;50.988;3.162;2023-02-21T11:39:00;17.10;;;8.93;;
18194;SDS011;9223;50.988;3.162;2023-02-21T11:45:18;12.35;;;7.20;;
18194;SDS011;9223;50.988;3.162;2023-02-21T11:51:25;14.13;;;8.93;;
18194;SDS011;9223;50.988;3.162;2023-02-21T11:57:30;14.52;;;10.05;;
18194;SDS011;9223;50.988;3.162;2023-02-21T12:03:50;12.40;;;9.27;;
18194;SDS011;9223;50.988;3.162;2023-02-21T12:09:58;10.57;;;8.73;;
18194;SDS011;9223;50.988;3.162;2023-02-21T12:16:07;10.13;;;6.85;;
18194;SDS011;9223;50.988;3.162;2023-02-21T12:22:19;11.65;;;7.30;;
18194;SDS011;9223;50.988;3.162;2023-02-21T12:28:27;14.15;;;8.20;;
18194;SDS011;9223;50.988;3.162;2023-02-21T12:34:34;10.82;;;7.03;;
18194;SDS011;9223;50.988;3.162;2023-02-21T12:40:47;12.25;;;7.95;;
18194;SDS011;9223;50.988;3.162;2023-02-21T12:46:55;12.18;;;8.55;;
18194;SDS011;9223;50.988;3.162;2023-02-21T12:53:01;16.42;;;9.50;;
18194;SDS011;9223;50.988;3.162;2023-02-21T12:59:09;13.25;;;8.48;;
18194;SDS011;9223;50.988;3.162;2023-02-21T13:05:15;13.90;;;7.95;;
18194;SDS011;9223;50.988;3.162;2023-02-21T13:11:21;15.93;;;8.85;;
18194;SDS011;9223;50.988;3.162;2023-02-21T13:17:29;15.80;;;9.40;;
18194;SDS011;9223;50.988;3.162;2023-02-21T13:23:32;13.90;;;8.75;;
18194;SDS011;9223;50.988;3.162;2023-02-21T13:29:58;16.63;;;9.82;;
18194;SDS011;9223;50.988;3.162;2023-02-21T13:36:15;14.30;;;9.00;;
18194;SDS011;9223;50.988;3.162;2023-02-21T13:42:21;12.82;;;8.68;;
18194;SDS011;9223;50.988;3.162;2023-02-21T13:48:26;12.70;;;8.50;;
18194;SDS011;9223;50.988;3.162;2023-02-21T13:54:32;11.00;;;7.60;;
18194;SDS011;9223;50.988;3.162;2023-02-21T14:00:45;10.30;;;7.28;;
18194;SDS011;9223;50.988;3.162;2023-02-21T14:06:53;11.48;;;8.15;;
18194;SDS011;9223;50.988;3.162;2023-02-21T14:12:58;14.98;;;9.07;;
18194;SDS011;9223;50.988;3.162;2023-02-21T14:19:05;13.73;;;9.27;;
18194;SDS011;9223;50.988;3.162;2023-02-21T14:25:15;15.23;;;9.32;;
18194;SDS011;9223;50.988;3.162;2023-02-21T14:37:39;19.50;;;10.68;;
18194;SDS011;9223;50.988;3.162;2023-02-21T14:43:48;17.65;;;11.18;;
18194;SDS011;9223;50.988;3.162;2023-02-21T14:49:59;16.67;;;10.27;;
18194;SDS011;9223;50.988;3.162;2023-02-21T14:56:25;15.73;;;9.95;;
18194;SDS011;9223;50.988;3.162;2023-02-21T15:02:38;14.15;;;8.55;;
18194;SDS011;9223;50.988;3.162;2023-02-21T15:08:45;13.20;;;9.00;;
18194;SDS011;9223;50.988;3.162;2023-02-21T15:14:52;12.57;;;8.50;;
18194;SDS011;9223;50.988;3.162;2023-02-21T15:21:01;10.82;;;7.80;;
18194;SDS011;9223;50.988;3.162;2023-02-21T15:27:08;13.65;;;9.15;;
18194;SDS011;9223;50.988;3.162;2023-02-21T15:33:15;13.80;;;9.27;;
18194;SDS011;9223;50.988;3.162;2023-02-21T15:39:20;12.90;;;8.93;;
18194;SDS011;9223;50.988;3.162;2023-02-21T15:45:27;13.63;;;9.02;;
18194;SDS011;9223;50.988;3.162;2023-02-21T15:51:35;16.27;;;9.88;;
18194;SDS011;9223;50.988;3.162;2023-02-21T15:57:41;16.77;;;10.52;;
18194;SDS011;9223;50.988;3.162;2023-02-21T16:03:44;24.00;;;14.15;;
18194;SDS011;9223;50.988;3.162;2023-02-21T16:09:55;14.55;;;10.07;;
18194;SDS011;9223;50.988;3.162;2023-02-21T16:16:01;20.45;;;12.05;;
18194;SDS011;9223;50.988;3.162;2023-02-21T16:22:12;15.77;;;10.88;;
18194;SDS011;9223;50.988;3.162;2023-02-21T16:28:19;28.65;;;16.30;;
18194;SDS011;9223;50.988;3.162;2023-02-21T16:34:23;38.78;;;22.05;;
18194;SDS011;9223;50.988;3.162;2023-02-21T16:40:28;44.95;;;29.15;;
18194;SDS011;9223;50.988;3.162;2023-02-21T16:46:34;24.50;;;14.90;;
18194;SDS011;9223;50.988;3.162;2023-02-21T16:52:37;20.73;;;13.00;;
18194;SDS011;9223;50.988;3.162;2023-02-21T16:58:42;21.30;;;13.40;;
18194;SDS011;9223;50.988;3.162;2023-02-21T17:04:48;18.05;;;11.43;;
18194;SDS011;9223;50.988;3.162;2023-02-21T17:10:52;20.45;;;13.10;;
18194;SDS011;9223;50.988;3.162;2023-02-21T17:16:57;22.52;;;13.73;;
18194;SDS011;9223;50.988;3.162;2023-02-21T17:23:03;51.08;;;30.27;;
18194;SDS011;9223;50.988;3.162;2023-02-21T17:29:06;24.08;;;15.95;;
18194;SDS011;9223;50.988;3.162;2023-02-21T17:35:11;29.23;;;19.02;;
18194;SDS011;9223;50.988;3.162;2023-02-21T17:41:17;20.88;;;13.68;;
18194;SDS011;9223;50.988;3.162;2023-02-21T17:47:22;63.35;;;41.20;;
18194;SDS011;9223;50.988;3.162;2023-02-21T17:53:26;22.40;;;14.40;;
18194;SDS011;9223;50.988;3.162;2023-02-21T17:59:31;24.23;;;17.17;;
18194;SDS011;9223;50.988;3.162;2023-02-21T18:05:35;24.85;;;14.93;;
18194;SDS011;9223;50.988;3.162;2023-02-21T18:11:39;25.80;;;14.50;;
18194;SDS011;9223;50.988;3.162;2023-02-21T18:17:45;22.05;;;13.90;;
18194;SDS011;9223;50.988;3.162;2023-02-21T18:23:48;26.27;;;14.90;;
18194;SDS011;9223;50.988;3.162;2023-02-21T18:29:52;25.45;;;14.05;;
18194;SDS011;9223;50.988;3.162;2023-02-21T18:35:58;28.00;;;16.63;;
18194;SDS011;9223;50.988;3.162;2023-02-21T18:42:01;24.95;;;13.93;;
18194;SDS011;9223;50.988;3.162;2023-02-21T18:48:05;22.23;;;13.88;;
18194;SDS011;9223;50.988;3.162;2023-02-21T18:54:10;23.58;;;13.63;;
18194;SDS011;9223;50.988;3.162;2023-02-21T19:00:15;23.48;;;14.60;;
18194;SDS011;9223;50.988;3.162;2023-02-21T19:06:19;20.70;;;13.30;;
18194;SDS011;9223;50.988;3.162;2023-02-21T19:12:24;22.80;;;14.48;;
18194;SDS011;9223;50.988;3.162;2023-02-21T19:18:28;22.73;;;14.60;;
18194;SDS011;9223;50.988;3.162;2023-02-21T19:24:31;27.38;;;15.75;;
18194;SDS011;9223;50.988;3.162;2023-02-21T19:30:36;28.70;;;17.02;;
18194;SDS011;9223;50.988;3.162;2023-02-21T19:36:41;29.95;;;17.77;;
18194;SDS011;9223;50.988;3.162;2023-02-21T19:42:44;27.63;;;16.42;;
18194;SDS011;9223;50.988;3.162;2023-02-21T19:48:50;27.00;;;16.23;;
18194;SDS011;9223;50.988;3.162;2023-02-21T19:54:54;27.27;;;16.05;;
18194;SDS011;9223;50.988;3.162;2023-02-21T20:00:57;30.55;;;17.42;;
18194;SDS011;9223;50.988;3.162;2023-02-21T20:07:02;37.60;;;17.80;;
18194;SDS011;9223;50.988;3.162;2023-02-21T20:13:06;35.08;;;17.15;;
18194;SDS011;9223;50.988;3.162;2023-02-21T20:19:10;34.65;;;16.73;;
18194;SDS011;9223;50.988;3.162;2023-02-21T20:25:15;34.70;;;17.17;;
18194;SDS011;9223;50.988;3.162;2023-02-21T20:31:19;34.85;;;16.83;;
18194;SDS011;9223;50.988;3.162;2023-02-21T20:37:24;33.40;;;16.48;;
18194;SDS011;9223;50.988;3.162;2023-02-21T20:43:32;36.47;;;17.35;;
18194;SDS011;9223;50.988;3.162;2023-02-21T20:49:36;36.60;;;17.33;;
18194;SDS011;9223;50.988;3.162;2023-02-21T20:55:41;36.20;;;16.90;;
18194;SDS011;9223;50.988;3.162;2023-02-21T21:01:46;36.72;;;16.45;;
18194;SDS011;9223;50.988;3.162;2023-02-21T21:07:50;47.20;;;23.13;;
18194;SDS011;9223;50.988;3.162;2023-02-21T21:13:56;40.60;;;18.23;;
18194;SDS011;9223;50.988;3.162;2023-02-21T21:20:01;37.90;;;18.20;;
18194;SDS011;9223;50.988;3.162;2023-02-21T21:26:08;38.92;;;18.00;;
18194;SDS011;9223;50.988;3.162;2023-02-21T21:32:13;37.55;;;18.30;;
18194;SDS011;9223;50.988;3.162;2023-02-21T21:38:19;50.45;;;17.35;;
18194;SDS011;9223;50.988;3.162;2023-02-21T21:44:26;77.38;;;17.58;;
18194;SDS011;9223;50.988;3.162;2023-02-21T21:50:30;77.00;;;16.23;;
18194;SDS011;9223;50.988;3.162;2023-02-21T21:56:34;75.10;;;17.55;;
18194;SDS011;9223;50.988;3.162;2023-02-21T22:02:40;55.95;;;15.77;;
18194;SDS011;9223;50.988;3.162;2023-02-21T22:08:47;48.67;;;15.88;;
18194;SDS011;9223;50.988;3.162;2023-02-21T22:14:52;80.93;;;16.60;;
18194;SDS011;9223;50.988;3.162;2023-02-21T22:20:57;63.03;;;16.95;;
18194;SDS011;9223;50.988;3.162;2023-02-21T22:27:01;80.53;;;18.25;;
18194;SDS011;9223;50.988;3.162;2023-02-21T22:33:06;69.90;;;17.10;;
18194;SDS011;9223;50.988;3.162;2023-02-21T22:39:13;73.88;;;17.60;;
18194;SDS011;9223;50.988;3.162;2023-02-21T22:45:17;66.80;;;17.05;;
18194;SDS011;9223;50.988;3.162;2023-02-21T22:51:25;61.22;;;16.55;;
18194;SDS011;9223;50.988;3.162;2023-02-21T22:57:28;51.45;;;16.25;;
18194;SDS011;9223;50.988;3.162;2023-02-21T23:03:33;82.57;;;17.05;;
18194;SDS011;9223;50.988;3.162;2023-02-21T23:09:39;74.22;;;17.23;;
18194;SDS011;9223;50.988;3.162;2023-02-21T23:15:43;63.00;;;15.27;;
18194;SDS011;9223;50.988;3.162;2023-02-21T23:21:47;58.17;;;16.10;;
18194;SDS011;9223;50.988;3.162;2023-02-21T23:27:53;71.60;;;16.02;;
18194;SDS011;9223;50.988;3.162;2023-02-21T23:33:56;54.88;;;15.25;;
18194;SDS011;9223;50.988;3.162;2023-02-21T23:40:00;64.38;;;15.05;;
18194;SDS011;9223;50.988;3.162;2023-02-21T23:46:08;73.40;;;16.25;;
18194;SDS011;9223;50.988;3.162;2023-02-21T23:52:11;98.82;;;16.00;;
18194;SDS011;9223;50.988;3.162;2023-02-21T23:58:16;65.82;;;15.23;;
